createdAt,value
2019-04-30T02:19:36.689Z,2.40
2019-04-30T02:22:06.876Z,2.13
2019-04-30T02:24:38.628Z,2.23
2019-04-30T02:27:10.466Z,1.90
2019-04-30T02:29:40.762Z,1.80
2019-04-30T02:32:11.000Z,2.17
2019-04-30T02:34:49.639Z,1.53
2019-04-30T02:37:23.840Z,1.33
2019-04-30T02:39:54.032Z,1.20
2019-04-30T02:42:25.159Z,1.40
2019-04-30T02:44:55.750Z,1.93
2019-04-30T02:47:26.645Z,1.10
2019-04-30T02:50:11.401Z,1.10
2019-04-30T02:52:31.741Z,1.40
2019-04-30T02:55:04.409Z,1.80
2019-04-30T02:57:35.039Z,1.83
2019-04-30T03:00:09.952Z,1.50
2019-04-30T03:02:40.447Z,1.63
2019-04-30T03:05:13.637Z,1.30
2019-04-30T03:07:43.102Z,1.10
2019-04-30T03:10:13.675Z,1.43
2019-04-30T03:12:44.244Z,1.50
2019-04-30T03:15:14.541Z,1.03
2019-04-30T03:18:00.993Z,1.50
2019-04-30T03:20:53.376Z,1.80
2019-04-30T03:23:24.397Z,1.23
2019-04-30T03:25:54.662Z,2.03
2019-04-30T03:28:24.904Z,1.47
2019-04-30T03:31:04.065Z,1.33
2019-04-30T03:33:32.592Z,1.52
2019-04-30T03:36:03.385Z,1.70
2019-04-30T03:38:33.568Z,1.43
2019-04-30T03:41:03.823Z,1.20
2019-04-30T03:43:34.118Z,1.67
2019-04-30T03:46:04.662Z,1.37
2019-04-30T03:48:34.872Z,1.80
2019-04-30T03:51:05.135Z,1.60
2019-04-30T03:53:35.417Z,1.57
2019-04-30T03:56:05.581Z,1.50
2019-04-30T03:58:35.867Z,1.20
2019-04-30T04:01:14.943Z,1.57
2019-04-30T04:04:03.254Z,1.30
2019-04-30T04:06:39.514Z,1.30
2019-04-30T04:09:21.911Z,1.00
2019-04-30T04:11:51.044Z,1.80
2019-04-30T04:14:21.956Z,1.20
2019-04-30T04:16:52.238Z,1.33
2019-04-30T04:19:22.673Z,1.20
2019-04-30T04:21:54.307Z,1.50
2019-04-30T04:24:24.760Z,1.30
2019-04-30T04:26:54.945Z,1.87
2019-04-30T04:29:25.223Z,2.13
2019-04-30T04:31:55.779Z,2.33
2019-04-30T04:34:26.174Z,1.73
2019-04-30T04:36:56.457Z,1.93
2019-04-30T04:39:29.781Z,2.03
2019-04-30T04:42:00.194Z,2.13
2019-04-30T04:44:31.648Z,2.30
2019-04-30T04:47:02.183Z,1.97
2019-04-30T04:49:32.534Z,2.13
2019-04-30T04:52:02.704Z,2.10
2019-04-30T04:54:33.018Z,1.57
2019-04-30T04:57:14.967Z,1.80
2019-04-30T04:59:35.503Z,1.57
2019-04-30T05:02:24.712Z,1.70
2019-04-30T05:04:55.698Z,1.93
2019-04-30T05:07:28.508Z,2.17
2019-04-30T05:10:00.608Z,1.73
2019-04-30T05:12:30.527Z,1.47
2019-04-30T05:15:01.094Z,1.80
2019-04-30T05:17:32.045Z,1.63
2019-04-30T05:20:02.440Z,1.77
2019-04-30T05:22:32.976Z,1.60
2019-04-30T05:25:03.207Z,1.50
2019-04-30T05:27:35.448Z,1.53
2019-04-30T05:30:09.736Z,2.03
2019-04-30T05:32:39.435Z,2.13
2019-04-30T05:35:11.332Z,1.90
2019-04-30T05:37:42.000Z,1.77
2019-04-30T05:40:12.408Z,1.80
2019-04-30T05:42:42.695Z,1.83
2019-04-30T05:45:13.859Z,2.30
2019-04-30T05:47:44.171Z,2.20
2019-04-30T05:50:15.365Z,1.83
2019-04-30T05:52:45.616Z,1.87
2019-04-30T05:55:16.080Z,1.87
2019-04-30T05:57:55.210Z,1.53
2019-04-30T06:00:19.170Z,1.93
2019-04-30T06:02:49.900Z,1.87
2019-04-30T06:05:20.124Z,2.63
2019-04-30T06:07:52.075Z,1.67
2019-04-30T06:11:01.071Z,2.33
2019-04-30T06:13:42.182Z,1.50
2019-04-30T06:16:18.807Z,1.70
2019-04-30T06:18:49.115Z,1.80
2019-04-30T06:21:21.601Z,2.40
2019-04-30T06:23:51.294Z,2.03
2019-04-30T06:26:21.742Z,2.17
2019-04-30T06:28:51.959Z,2.60
2019-04-30T06:31:32.399Z,2.50
2019-04-30T06:33:54.246Z,2.63
2019-04-30T06:36:24.903Z,2.37
2019-04-30T06:38:55.433Z,2.10
2019-04-30T06:41:25.723Z,2.53
2019-04-30T06:43:55.938Z,2.20
2019-04-30T06:46:28.522Z,2.30
2019-04-30T06:48:59.495Z,2.40
2019-04-30T06:51:30.827Z,2.50
2019-04-30T06:54:01.133Z,2.13
2019-04-30T06:56:31.349Z,2.03
2019-04-30T06:59:01.863Z,2.50
2019-04-30T07:01:32.105Z,2.70
2019-04-30T07:04:02.336Z,2.93
2019-04-30T07:06:37.122Z,2.93
2019-04-30T07:09:19.613Z,2.90
2019-04-30T07:12:09.107Z,3.27
2019-04-30T07:14:41.736Z,3.13
2019-04-30T07:17:11.326Z,3.33
2019-04-30T07:19:53.470Z,4.40
2019-04-30T07:22:13.862Z,3.10
2019-04-30T07:24:44.596Z,4.37
2019-04-30T07:27:14.915Z,3.30
2019-04-30T07:29:45.186Z,3.47
2019-04-30T07:32:15.455Z,2.97
2019-04-30T07:34:46.103Z,3.63
2019-04-30T07:37:23.914Z,3.33
2019-04-30T07:39:49.391Z,3.97
2019-04-30T07:42:20.146Z,3.27
2019-04-30T07:44:50.437Z,4.00
2019-04-30T07:47:20.684Z,4.30
2019-04-30T07:49:55.072Z,3.47
2019-04-30T07:52:24.112Z,3.30
2019-04-30T07:54:54.676Z,3.30
2019-04-30T07:57:25.476Z,2.87
2019-04-30T07:59:56.517Z,4.70
2019-04-30T08:02:29.698Z,3.10
2019-04-30T08:05:10.567Z,3.17
2019-04-30T08:07:40.970Z,3.43
2019-04-30T08:10:11.474Z,2.80
2019-04-30T08:12:43.502Z,2.85
2019-04-30T08:15:13.685Z,3.17
2019-04-30T08:17:43.893Z,4.08
2019-04-30T08:20:15.937Z,3.72
2019-04-30T08:22:46.299Z,4.78
2019-04-30T08:25:18.815Z,4.20
2019-04-30T08:27:49.242Z,3.80
2019-04-30T08:30:26.403Z,4.70
2019-04-30T08:32:52.926Z,3.85
2019-04-30T08:35:23.399Z,3.45
2019-04-30T08:37:54.736Z,4.05
2019-04-30T08:40:25.128Z,4.78
2019-04-30T08:42:55.645Z,4.80
2019-04-30T08:45:25.925Z,3.30
2019-04-30T08:48:00.556Z,3.80
2019-04-30T08:50:31.163Z,4.20
2019-04-30T08:53:01.571Z,3.83
2019-04-30T08:55:33.167Z,3.80
2019-04-30T08:58:10.002Z,3.77
2019-04-30T09:00:35.412Z,3.72
2019-04-30T09:03:05.860Z,3.60
2019-04-30T09:05:55.355Z,3.87
2019-04-30T09:08:25.990Z,4.70
2019-04-30T09:10:56.293Z,3.37
2019-04-30T09:13:28.534Z,2.33
2019-04-30T09:15:59.362Z,3.00
2019-04-30T09:18:29.722Z,4.08
2019-04-30T09:21:05.965Z,4.90
2019-04-30T09:23:44.135Z,3.03
2019-04-30T09:26:04.386Z,3.17
2019-04-30T09:28:34.927Z,2.50
2019-04-30T09:31:05.554Z,2.83
2019-04-30T09:33:35.873Z,2.80
2019-04-30T09:36:06.586Z,2.63
2019-04-30T09:38:38.920Z,2.50
2019-04-30T09:41:09.642Z,2.10
2019-04-30T09:43:40.515Z,2.58
2019-04-30T09:46:21.999Z,2.63
2019-04-30T09:48:43.031Z,2.50
2019-04-30T09:51:14.093Z,2.37
2019-04-30T09:53:55.827Z,2.37
2019-04-30T09:56:17.141Z,3.40
2019-04-30T09:58:49.262Z,2.83
2019-04-30T10:01:22.010Z,2.87
2019-04-30T10:03:51.932Z,3.00
2019-04-30T10:06:22.958Z,3.00
2019-04-30T10:08:53.212Z,2.67
2019-04-30T10:11:38.641Z,2.60
2019-04-30T10:14:08.914Z,2.50
2019-04-30T10:17:01.188Z,2.40
2019-04-30T10:19:31.483Z,2.50
2019-04-30T10:22:02.129Z,2.97
2019-04-30T10:24:33.977Z,2.40
2019-04-30T10:27:06.836Z,2.77
2019-04-30T10:29:36.281Z,2.70
2019-04-30T10:32:06.521Z,2.80
2019-04-30T10:34:36.798Z,3.95
2019-04-30T10:37:08.943Z,2.90
2019-04-30T10:39:39.441Z,3.52
2019-04-30T10:42:09.946Z,3.10
2019-04-30T10:44:40.253Z,4.22
2019-04-30T10:47:10.709Z,3.33
2019-04-30T10:49:41.038Z,2.72
2019-04-30T10:52:11.558Z,2.70
2019-04-30T10:54:41.758Z,2.67
2019-04-30T10:57:12.038Z,3.33
2019-04-30T10:59:42.392Z,3.75
2019-04-30T11:02:12.672Z,3.15
2019-04-30T11:04:43.049Z,3.12
2019-04-30T11:07:13.500Z,3.60
2019-04-30T11:09:43.889Z,4.28
2019-04-30T11:12:14.076Z,3.65
2019-04-30T11:14:44.363Z,3.30
2019-04-30T11:17:14.811Z,3.60
2019-04-30T11:19:45.697Z,2.85
2019-04-30T11:22:16.213Z,3.45
2019-04-30T11:24:56.474Z,2.62
2019-04-30T11:27:20.685Z,3.05
2019-04-30T11:29:50.569Z,3.10
2019-04-30T11:32:23.329Z,2.83
2019-04-30T11:34:53.747Z,3.20
2019-04-30T11:37:24.130Z,3.55
2019-04-30T11:39:55.406Z,3.12
2019-04-30T11:42:25.711Z,3.92
2019-04-30T11:44:56.264Z,2.55
2019-04-30T11:47:35.946Z,3.10
2019-04-30T11:50:11.898Z,2.63
2019-04-30T11:52:43.337Z,2.93
2019-04-30T11:55:14.753Z,3.90
2019-04-30T11:57:45.193Z,2.93
2019-04-30T12:00:24.159Z,2.47
2019-04-30T12:02:54.671Z,2.65
2019-04-30T12:05:25.053Z,2.37
2019-04-30T12:08:13.295Z,2.13
2019-04-30T12:10:52.834Z,2.87
2019-04-30T12:13:24.393Z,2.83
2019-04-30T12:15:55.610Z,3.25
2019-04-30T12:18:26.387Z,4.33
2019-04-30T12:20:57.018Z,3.72
2019-04-30T12:23:27.204Z,3.83
2019-04-30T12:26:01.013Z,3.67
2019-04-30T12:28:29.738Z,4.87
2019-04-30T12:31:00.007Z,4.53
2019-04-30T12:33:30.342Z,4.40
2019-04-30T12:36:01.653Z,4.42
2019-04-30T12:38:31.932Z,4.03
2019-04-30T12:41:02.228Z,3.40
2019-04-30T12:43:32.459Z,4.10
2019-04-30T12:46:05.624Z,3.63
2019-04-30T12:48:43.523Z,3.52
2019-04-30T12:51:45.233Z,3.72
2019-04-30T12:54:13.528Z,3.17
2019-04-30T12:57:15.141Z,3.40
2019-04-30T12:59:45.720Z,4.67
2019-04-30T13:02:16.033Z,3.67
2019-04-30T13:04:46.312Z,4.15
2019-04-30T13:07:20.184Z,4.45
2019-04-30T13:09:50.396Z,4.37
2019-04-30T13:12:21.466Z,4.10
2019-04-30T13:14:54.671Z,4.25
2019-04-30T13:17:24.288Z,4.50
2019-04-30T13:19:54.871Z,5.00
2019-04-30T13:22:25.232Z,4.78
2019-04-30T13:24:55.530Z,4.72
2019-04-30T13:27:25.795Z,5.00
2019-04-30T13:30:24.334Z,4.95
2019-04-30T13:33:22.804Z,5.00
2019-04-30T13:35:53.177Z,4.92
2019-04-30T13:38:45.107Z,4.50
2019-04-30T13:41:18.726Z,4.37
2019-04-30T13:43:59.602Z,4.45
2019-04-30T13:46:30.083Z,5.13
2019-04-30T13:49:00.693Z,5.50
2019-04-30T13:51:30.957Z,4.45
2019-04-30T13:54:01.233Z,4.62
2019-04-30T13:56:31.585Z,4.58
2019-04-30T13:59:02.003Z,4.20
2019-04-30T14:01:32.538Z,4.08
2019-04-30T14:04:24.552Z,4.62
2019-04-30T14:07:12.680Z,4.83
2019-04-30T14:09:43.251Z,5.20
2019-04-30T14:12:14.079Z,4.83
2019-04-30T14:14:44.452Z,4.92
2019-04-30T14:17:14.789Z,4.65
2019-04-30T14:19:45.012Z,4.90
2019-04-30T14:22:15.267Z,4.22
2019-04-30T14:24:45.473Z,4.72
2019-04-30T14:27:17.012Z,4.62
2019-04-30T14:29:47.220Z,4.97
2019-04-30T14:32:18.585Z,5.12
2019-04-30T14:34:50.716Z,4.83
2019-04-30T14:37:21.109Z,4.78
2019-04-30T14:39:51.894Z,4.30
2019-04-30T14:42:23.521Z,4.12
2019-04-30T14:45:05.718Z,4.85
2019-04-30T14:48:00.325Z,4.97
2019-04-30T14:50:30.856Z,5.10
2019-04-30T14:53:26.260Z,4.00
2019-04-30T14:56:15.447Z,3.62
2019-04-30T14:58:56.339Z,3.77
2019-04-30T15:01:51.700Z,4.20
2019-04-30T15:04:22.032Z,3.10
2019-04-30T15:06:52.657Z,3.20
2019-04-30T15:09:23.492Z,3.35
2019-04-30T15:11:53.754Z,3.17
2019-04-30T15:14:24.057Z,3.77
2019-04-30T15:16:54.672Z,3.45
2019-04-30T15:19:25.006Z,4.33
2019-04-30T15:21:55.256Z,4.17
2019-04-30T15:24:30.604Z,4.05
2019-04-30T15:27:00.806Z,3.55
2019-04-30T15:29:31.204Z,3.80
2019-04-30T15:32:03.076Z,3.80
2019-04-30T15:34:35.616Z,3.70
2019-04-30T15:37:18.512Z,4.37
2019-04-30T15:39:39.806Z,3.55
2019-04-30T15:42:11.624Z,3.80
2019-04-30T15:44:45.249Z,4.33
2019-04-30T15:47:14.060Z,3.40
2019-04-30T15:49:44.352Z,3.85
2019-04-30T15:52:14.891Z,3.40
2019-04-30T15:54:47.003Z,4.85
2019-04-30T15:57:18.857Z,4.12
2019-04-30T15:59:49.231Z,4.62
2019-04-30T16:02:57.004Z,4.47
2019-04-30T16:05:37.042Z,3.43
2019-04-30T16:08:25.108Z,3.92
2019-04-30T16:11:33.041Z,4.03
2019-04-30T16:14:11.285Z,3.77
2019-04-30T16:16:44.460Z,4.17
2019-04-30T16:19:14.675Z,4.20
2019-04-30T16:21:44.932Z,4.33
2019-04-30T16:24:15.379Z,4.55
2019-04-30T16:26:49.498Z,4.80
2019-04-30T16:29:17.645Z,4.12
2019-04-30T16:31:49.469Z,4.35
2019-04-30T16:34:19.873Z,4.33
2019-04-30T16:36:50.166Z,4.70
2019-04-30T16:39:20.364Z,4.15
2019-04-30T16:41:50.615Z,4.15
2019-04-30T16:44:21.089Z,4.28
2019-04-30T16:46:51.402Z,4.55
2019-04-30T16:49:21.618Z,4.80
2019-04-30T16:51:51.909Z,3.58
2019-04-30T16:54:22.093Z,4.37
2019-04-30T16:57:03.578Z,3.87
2019-04-30T16:59:30.724Z,4.30
2019-04-30T17:02:01.347Z,4.17
2019-04-30T17:04:56.275Z,4.35
2019-04-30T17:07:44.595Z,3.95
2019-04-30T17:10:33.816Z,4.00
2019-04-30T17:13:25.793Z,5.00
2019-04-30T17:16:00.017Z,4.20
2019-04-30T17:18:30.271Z,4.03
2019-04-30T17:21:00.557Z,2.85
2019-04-30T17:23:30.812Z,3.58
2019-04-30T17:26:01.129Z,4.08
2019-04-30T17:28:31.744Z,3.17
2019-04-30T17:31:02.055Z,2.98
2019-04-30T17:33:32.224Z,2.27
2019-04-30T17:36:02.489Z,2.10
2019-04-30T17:38:32.703Z,2.85
2019-04-30T17:41:02.940Z,2.58
2019-04-30T17:43:33.484Z,2.30
2019-04-30T17:46:04.214Z,3.35
2019-04-30T17:48:34.575Z,2.70
2019-04-30T17:51:06.328Z,3.00
2019-04-30T17:53:38.913Z,2.77
2019-04-30T17:56:09.608Z,2.75
2019-04-30T17:58:39.904Z,2.40
2019-04-30T18:01:10.762Z,2.10
2019-04-30T18:03:41.089Z,2.20
2019-04-30T18:06:12.445Z,2.30
2019-04-30T18:08:42.741Z,2.13
2019-04-30T18:11:14.355Z,1.80
2019-04-30T18:13:44.714Z,2.10
2019-04-30T18:16:14.936Z,1.90
2019-04-30T18:18:51.236Z,1.43
2019-04-30T18:21:43.516Z,2.00
2019-04-30T18:24:33.772Z,2.55
2019-04-30T18:27:20.988Z,2.23
2019-04-30T18:29:49.773Z,2.90
2019-04-30T18:32:21.924Z,3.47
2019-04-30T18:34:52.160Z,3.20
2019-04-30T18:37:22.454Z,3.47
2019-04-30T18:39:53.028Z,3.13
2019-04-30T18:42:23.660Z,3.50
2019-04-30T18:44:54.360Z,3.43
2019-04-30T18:47:25.333Z,3.13
2019-04-30T18:49:55.617Z,4.47
2019-04-30T18:52:25.844Z,3.90
2019-04-30T18:54:56.165Z,3.80
2019-04-30T18:57:26.497Z,4.10
2019-04-30T18:59:56.753Z,4.40
2019-04-30T19:02:28.455Z,4.00
2019-04-30T19:04:59.520Z,4.03
2019-04-30T19:07:38.542Z,4.50
2019-04-30T19:10:22.111Z,4.20
2019-04-30T19:12:59.061Z,3.70
2019-04-30T19:16:17.152Z,4.70
2019-04-30T19:18:26.745Z,4.30
2019-04-30T19:20:57.459Z,4.53
2019-04-30T19:23:29.117Z,4.67
2019-04-30T19:26:00.213Z,5.07
2019-04-30T19:28:30.619Z,4.43
2019-04-30T19:31:01.102Z,4.33
2019-04-30T19:33:33.097Z,3.40
2019-04-30T19:36:03.301Z,4.23
2019-04-30T19:38:33.649Z,5.07
2019-04-30T19:41:04.260Z,4.50
2019-04-30T19:43:34.852Z,4.50
2019-04-30T19:46:05.230Z,5.03
2019-04-30T19:48:35.628Z,4.57
2019-04-30T19:51:06.233Z,5.27
2019-04-30T19:53:36.618Z,4.13
2019-04-30T19:56:07.247Z,4.80
2019-04-30T19:58:52.314Z,6.20
2019-04-30T20:01:09.629Z,5.70
2019-04-30T20:03:41.584Z,5.83
2019-04-30T20:06:12.128Z,5.50
2019-04-30T20:08:43.107Z,6.27
2019-04-30T20:11:14.053Z,6.17
2019-04-30T20:13:44.784Z,6.13
2019-04-30T20:16:16.816Z,5.77
2019-04-30T20:18:49.034Z,5.97
2019-04-30T20:21:28.416Z,5.63
2019-04-30T20:23:53.555Z,7.70
2019-04-30T20:26:23.919Z,6.23
2019-04-30T20:28:54.254Z,6.90
2019-04-30T20:31:24.631Z,6.47
2019-04-30T20:33:55.369Z,5.60
2019-04-30T20:36:25.655Z,5.83
2019-04-30T20:39:20.456Z,5.80
2019-04-30T20:41:53.081Z,6.37
2019-04-30T20:44:24.208Z,6.57
2019-04-30T20:46:54.702Z,6.77
2019-04-30T20:49:25.987Z,6.83
2019-04-30T20:51:56.629Z,6.70
2019-04-30T20:54:29.094Z,7.17
2019-04-30T20:56:59.523Z,6.47
2019-04-30T20:59:29.849Z,6.70
2019-04-30T21:02:00.612Z,7.40
2019-04-30T21:04:30.865Z,6.33
2019-04-30T21:07:01.535Z,7.23
2019-04-30T21:09:32.278Z,6.57
2019-04-30T21:12:02.649Z,6.47
2019-04-30T21:14:33.629Z,5.73
2019-04-30T21:17:04.051Z,6.50
2019-04-30T21:19:34.608Z,6.10
2019-04-30T21:22:04.852Z,5.83
2019-04-30T21:24:35.418Z,6.70
2019-04-30T21:27:05.704Z,6.20
2019-04-30T21:29:36.610Z,5.93
2019-04-30T21:32:15.821Z,5.63
2019-04-30T21:35:20.344Z,5.97
2019-04-30T21:37:50.625Z,6.30
2019-04-30T21:40:20.934Z,6.30
2019-04-30T21:42:51.225Z,6.47
2019-04-30T21:45:21.485Z,6.70
2019-04-30T21:47:56.436Z,6.30
2019-04-30T21:50:25.183Z,6.00
2019-04-30T21:52:55.480Z,6.67
2019-04-30T21:55:26.359Z,6.00
2019-04-30T21:57:56.611Z,5.63
2019-04-30T22:00:45.530Z,6.87
2019-04-30T22:03:19.618Z,6.50
2019-04-30T22:05:49.772Z,6.90
2019-04-30T22:08:20.071Z,6.97
2019-04-30T22:10:50.304Z,7.27
2019-04-30T22:13:20.594Z,6.90
2019-04-30T22:15:50.844Z,6.80
2019-04-30T22:18:21.197Z,6.87
2019-04-30T22:20:51.502Z,7.40
2019-04-30T22:23:21.799Z,6.97
2019-04-30T22:25:52.396Z,7.37
2019-04-30T22:28:22.996Z,6.33
2019-04-30T22:30:53.307Z,6.43
2019-04-30T22:33:24.083Z,6.30
2019-04-30T22:36:28.976Z,6.17
2019-04-30T22:39:13.228Z,7.00
2019-04-30T22:41:43.459Z,6.17
2019-04-30T22:44:14.100Z,6.47
2019-04-30T22:46:44.735Z,6.43
2019-04-30T22:49:14.915Z,7.50
2019-04-30T22:51:45.444Z,7.53
2019-04-30T22:54:15.676Z,8.00
2019-04-30T22:56:46.010Z,8.23
2019-04-30T22:59:16.260Z,7.03
2019-04-30T23:01:58.505Z,7.53
2019-04-30T23:04:37.939Z,7.30
2019-04-30T23:07:08.788Z,7.17
2019-04-30T23:09:38.987Z,7.63
2019-04-30T23:12:09.384Z,6.77
2019-04-30T23:14:40.788Z,7.80
2019-04-30T23:17:11.419Z,7.77
2019-04-30T23:19:49.147Z,8.00
2019-04-30T23:22:13.660Z,8.67
2019-04-30T23:24:43.940Z,7.40
2019-04-30T23:27:14.185Z,7.83
2019-04-30T23:29:44.463Z,7.97
2019-04-30T23:32:14.747Z,8.80
2019-04-30T23:34:45.014Z,9.00
2019-04-30T23:37:15.310Z,8.63
2019-04-30T23:39:45.974Z,10.57
2019-04-30T23:42:16.242Z,12.50
2019-04-30T23:44:46.515Z,9.53
2019-04-30T23:47:16.805Z,10.37
2019-04-30T23:49:47.090Z,10.27
2019-04-30T23:52:17.653Z,9.53
2019-04-30T23:54:48.214Z,11.90
2019-04-30T23:57:18.528Z,14.10
2019-04-30T23:59:49.273Z,12.87
